< < Back
Terminal Aerodrome Forecast


Current Version              Previous Versions:   1  2  3  4  5  6  7  8  9  

Terminal Aerodrome Forecast

650
FTUS44 KMRX 190526
TAFCHA
TAF
KCHA 190526Z 1906/2006 02004KT P6SM BKN090
     FM191300 01010KT P6SM SCT070 BKN120
     FM191900 04010KT P6SM SCT070 BKN120
     FM192300 VRB03KT P6SM SCT120=

Latest METAR

727
SAUS80 KWBC 201000
MTRCHA
METAR KCHA 200953Z 00000KT 7SM CLR 07/06 A3021 RMK AO2 SLP228 FIRST
T00720061


USA.gov is the U.S. government's official web portal to all federal, state and local government web resources and services.